sensor_id;sensor_type;location;lat;lon;timestamp;pressure;altitude;pressure_sealevel;temperature;humidity
26489;BME280;14169;43.684;10.484;2022-12-29T00:02:03;102328.84;;;13.05;100.00
26489;BME280;14169;43.684;10.484;2022-12-29T00:04:29;102327.03;;;13.08;100.00
26489;BME280;14169;43.684;10.484;2022-12-29T00:06:54;102329.63;;;13.08;100.00
26489;BME280;14169;43.684;10.484;2022-12-29T00:09:20;102331.31;;;13.12;100.00
26489;BME280;14169;43.684;10.484;2022-12-29T00:11:45;102336.47;;;13.15;100.00
26489;BME280;14169;43.684;10.484;2022-12-29T00:14:12;102334.72;;;13.19;100.00
26489;BME280;14169;43.684;10.484;2022-12-29T00:16:56;102321.59;;;13.22;100.00
26489;BME280;14169;43.684;10.484;2022-12-29T00:19:22;102315.47;;;13.23;100.00
26489;BME280;14169;43.684;10.484;2022-12-29T00:22:09;102321.63;;;13.20;100.00
26489;BME280;14169;43.684;10.484;2022-12-29T00:24:54;102317.31;;;13.13;100.00
26489;BME280;14169;43.684;10.484;2022-12-29T00:27:38;102320.03;;;13.09;100.00
26489;BME280;14169;43.684;10.484;2022-12-29T00:30:23;102309.66;;;13.04;100.00
26489;BME280;14169;43.684;10.484;2022-12-29T00:33:20;102306.25;;;12.98;100.00
26489;BME280;14169;43.684;10.484;2022-12-29T00:36:26;102303.78;;;12.90;100.00
26489;BME280;14169;43.684;10.484;2022-12-29T00:38:57;102311.72;;;12.84;100.00
26489;BME280;14169;43.684;10.484;2022-12-29T00:41:43;102316.13;;;12.82;100.00
26489;BME280;14169;43.684;10.484;2022-12-29T00:44:27;102310.06;;;12.79;100.00
26489;BME280;14169;43.684;10.484;2022-12-29T00:46:52;102310.84;;;12.84;100.00
26489;BME280;14169;43.684;10.484;2022-12-29T00:49:17;102309.09;;;12.84;100.00
26489;BME280;14169;43.684;10.484;2022-12-29T00:52:06;102307.34;;;12.86;100.00
26489;BME280;14169;43.684;10.484;2022-12-29T00:54:39;102298.63;;;12.86;100.00
26489;BME280;14169;43.684;10.484;2022-12-29T00:57:07;102307.34;;;12.86;100.00
26489;BME280;14169;43.684;10.484;2022-12-29T00:59:35;102306.47;;;12.87;100.00
26489;BME280;14169;43.684;10.484;2022-12-29T01:02:00;102309.06;;;12.87;100.00
26489;BME280;14169;43.684;10.484;2022-12-29T01:04:26;102310.84;;;12.84;100.00
26489;BME280;14169;43.684;10.484;2022-12-29T01:06:52;102317.03;;;12.81;100.00
26489;BME280;14169;43.684;10.484;2022-12-29T01:09:18;102315.28;;;12.80;100.00
26489;BME280;14169;43.684;10.484;2022-12-29T01:12:03;102315.34;;;12.77;100.00
26489;BME280;14169;43.684;10.484;2022-12-29T01:14:28;102310.09;;;12.77;100.00
26489;BME280;14169;43.684;10.484;2022-12-29T01:16:55;102313.56;;;12.78;100.00
26489;BME280;14169;43.684;10.484;2022-12-29T01:19:20;102319.75;;;12.72;100.00
26489;BME280;14169;43.684;10.484;2022-12-29T01:21:46;102307.59;;;12.71;100.00
26489;BME280;14169;43.684;10.484;2022-12-29T01:24:13;102307.59;;;12.70;100.00
26489;BME280;14169;43.684;10.484;2022-12-29T01:26:38;102311.09;;;12.69;100.00
26489;BME280;14169;43.684;10.484;2022-12-29T01:29:04;102306.75;;;12.67;100.00
26489;BME280;14169;43.684;10.484;2022-12-29T01:31:29;102303.22;;;12.70;100.00
26489;BME280;14169;43.684;10.484;2022-12-29T01:33:55;102304.03;;;12.74;100.00
26489;BME280;14169;43.684;10.484;2022-12-29T01:36:20;102296.19;;;12.75;100.00
26489;BME280;14169;43.684;10.484;2022-12-29T01:38:45;102297.97;;;12.72;100.00
26489;BME280;14169;43.684;10.484;2022-12-29T01:41:13;102289.25;;;12.73;100.00
26489;BME280;14169;43.684;10.484;2022-12-29T01:43:49;102285.75;;;12.75;100.00
26489;BME280;14169;43.684;10.484;2022-12-29T01:46:18;102294.44;;;12.74;100.00
26489;BME280;14169;43.684;10.484;2022-12-29T01:48:48;102277.13;;;12.69;100.00
26489;BME280;14169;43.684;10.484;2022-12-29T01:51:17;102276.38;;;12.60;100.00
26489;BME280;14169;43.684;10.484;2022-12-29T01:53:44;102280.78;;;12.57;100.00
26489;BME280;14169;43.684;10.484;2022-12-29T01:56:15;102282.53;;;12.56;100.00
26489;BME280;14169;43.684;10.484;2022-12-29T01:58:44;102277.41;;;12.50;100.00
26489;BME280;14169;43.684;10.484;2022-12-29T02:01:12;102282.59;;;12.52;100.00
26489;BME280;14169;43.684;10.484;2022-12-29T02:03:38;102280.78;;;12.57;100.00
26489;BME280;14169;43.684;10.484;2022-12-29T02:06:34;102278.19;;;12.57;100.00
26489;BME280;14169;43.684;10.484;2022-12-29T02:09:02;102273.78;;;12.59;100.00
26489;BME280;14169;43.684;10.484;2022-12-29T02:11:28;102272.00;;;12.61;100.00
26489;BME280;14169;43.684;10.484;2022-12-29T02:13:56;102272.91;;;12.58;100.00
26489;BME280;14169;43.684;10.484;2022-12-29T02:33:23;102250.31;;;12.54;100.00
26489;BME280;14169;43.684;10.484;2022-12-29T02:36:07;102244.28;;;12.51;100.00
26489;BME280;14169;43.684;10.484;2022-12-29T02:44:27;102242.50;;;12.53;100.00
26489;BME280;14169;43.684;10.484;2022-12-29T02:49:49;102228.53;;;12.54;100.00
26489;BME280;14169;43.684;10.484;2022-12-29T02:52:25;102226.81;;;12.54;100.00
26489;BME280;14169;43.684;10.484;2022-12-29T02:54:55;102231.13;;;12.57;100.00
26489;BME280;14169;43.684;10.484;2022-12-29T02:59:49;102230.09;;;12.65;100.00
26489;BME280;14169;43.684;10.484;2022-12-29T03:10:55;102217.13;;;12.59;100.00
26489;BME280;14169;43.684;10.484;2022-12-29T03:13:39;102218.81;;;12.62;100.00
26489;BME280;14169;43.684;10.484;2022-12-29T03:16:29;102215.28;;;12.66;100.00
26489;BME280;14169;43.684;10.484;2022-12-29T03:19:26;102214.31;;;12.70;100.00
26489;BME280;14169;43.684;10.484;2022-12-29T03:24:54;102214.44;;;12.64;100.00
26489;BME280;14169;43.684;10.484;2022-12-29T03:27:27;102217.03;;;12.64;100.00
26489;BME280;14169;43.684;10.484;2022-12-29T03:30:00;102216.22;;;12.62;100.00
26489;BME280;14169;43.684;10.484;2022-12-29T03:32:51;102217.13;;;12.59;100.00
26489;BME280;14169;43.684;10.484;2022-12-29T03:35:22;102216.22;;;12.62;100.00
26489;BME280;14169;43.684;10.484;2022-12-29T03:37:59;102212.75;;;12.60;100.00
26489;BME280;14169;43.684;10.484;2022-12-29T03:40:28;102220.63;;;12.58;100.00
26489;BME280;14169;43.684;10.484;2022-12-29T03:42:57;102215.41;;;12.58;100.00
26489;BME280;14169;43.684;10.484;2022-12-29T03:45:23;102225.84;;;12.58;100.00
26489;BME280;14169;43.684;10.484;2022-12-29T03:47:48;102230.19;;;12.59;100.00
26489;BME280;14169;43.684;10.484;2022-12-29T03:50:14;102225.81;;;12.60;100.00
26489;BME280;14169;43.684;10.484;2022-12-29T03:52:39;102219.72;;;12.61;100.00
26489;BME280;14169;43.684;10.484;2022-12-29T03:55:05;102215.34;;;12.63;100.00
26489;BME280;14169;43.684;10.484;2022-12-29T03:57:30;102221.41;;;12.63;100.00
26489;BME280;14169;43.684;10.484;2022-12-29T03:59:56;102213.56;;;12.63;100.00
26489;BME280;14169;43.684;10.484;2022-12-29T04:02:21;102214.44;;;12.64;100.00
26489;BME280;14169;43.684;10.484;2022-12-29T04:04:47;102213.56;;;12.65;100.00
26489;BME280;14169;43.684;10.484;2022-12-29T04:07:12;102209.19;;;12.64;100.00
26489;BME280;14169;43.684;10.484;2022-12-29T04:09:37;102210.09;;;12.63;100.00
26489;BME280;14169;43.684;10.484;2022-12-29T04:12:03;102210.09;;;12.63;100.00
26489;BME280;14169;43.684;10.484;2022-12-29T04:14:29;102210.94;;;12.63;100.00
26489;BME280;14169;43.684;10.484;2022-12-29T04:16:54;102210.94;;;12.65;100.00
26489;BME280;14169;43.684;10.484;2022-12-29T04:19:19;102216.16;;;12.65;100.00
26489;BME280;14169;43.684;10.484;2022-12-29T04:21:45;102218.75;;;12.67;100.00
26489;BME280;14169;43.684;10.484;2022-12-29T04:24:10;102222.25;;;12.65;100.00
26489;BME280;14169;43.684;10.484;2022-12-29T04:26:35;102223.13;;;12.66;100.00
26489;BME280;14169;43.684;10.484;2022-12-29T04:29:01;102221.53;;;12.56;100.00
26489;BME280;14169;43.684;10.484;2022-12-29T04:31:26;102222.41;;;12.56;100.00
26489;BME280;14169;43.684;10.484;2022-12-29T04:33:52;102218.91;;;12.56;100.00
26489;BME280;14169;43.684;10.484;2022-12-29T04:36:17;102223.28;;;12.57;100.00
26489;BME280;14169;43.684;10.484;2022-12-29T04:38:42;102225.06;;;12.55;100.00
26489;BME280;14169;43.684;10.484;2022-12-29T04:41:08;102229.34;;;12.57;100.00
26489;BME280;14169;43.684;10.484;2022-12-29T04:43:33;102224.97;;;12.59;100.00
26489;BME280;14169;43.684;10.484;2022-12-29T04:45:59;102232.81;;;12.59;100.00
26489;BME280;14169;43.684;10.484;2022-12-29T04:48:24;102235.41;;;12.61;100.00
26489;BME280;14169;43.684;10.484;2022-12-29T04:50:50;102229.25;;;12.65;100.00
26489;BME280;14169;43.684;10.484;2022-12-29T04:53:16;102230.00;;;12.70;100.00
26489;BME280;14169;43.684;10.484;2022-12-29T04:55:42;102227.47;;;12.65;100.00
26489;BME280;14169;43.684;10.484;2022-12-29T04:58:07;102225.78;;;12.61;100.00
26489;BME280;14169;43.684;10.484;2022-12-29T05:00:33;102231.91;;;12.62;100.00
26489;BME280;14169;43.684;10.484;2022-12-29T05:02:59;102224.97;;;12.61;100.00
26489;BME280;14169;43.684;10.484;2022-12-29T05:05:25;102228.47;;;12.58;100.00
26489;BME280;14169;43.684;10.484;2022-12-29T05:07:50;102230.22;;;12.58;100.00
26489;BME280;14169;43.684;10.484;2022-12-29T05:10:16;102232.84;;;12.58;100.00
26489;BME280;14169;43.684;10.484;2022-12-29T05:12:42;102225.84;;;12.58;100.00
26489;BME280;14169;43.684;10.484;2022-12-29T05:15:08;102225.84;;;12.58;100.00
26489;BME280;14169;43.684;10.484;2022-12-29T05:17:34;102236.31;;;12.58;100.00
26489;BME280;14169;43.684;10.484;2022-12-29T05:20:00;102235.56;;;12.50;100.00
26489;BME280;14169;43.684;10.484;2022-12-29T05:22:25;102239.13;;;12.46;100.00
26489;BME280;14169;43.684;10.484;2022-12-29T05:24:51;102242.66;;;12.44;100.00
26489;BME280;14169;43.684;10.484;2022-12-29T05:27:16;102234.78;;;12.45;100.00
26489;BME280;14169;43.684;10.484;2022-12-29T05:29:42;102234.66;;;12.51;100.00
26489;BME280;14169;43.684;10.484;2022-12-29T05:32:07;102238.22;;;12.49;100.00
26489;BME280;14169;43.684;10.484;2022-12-29T05:34:32;102233.84;;;12.49;100.00
26489;BME280;14169;43.684;10.484;2022-12-29T05:36:58;102235.56;;;12.50;100.00
26489;BME280;14169;43.684;10.484;2022-12-29T05:39:23;102243.41;;;12.50;100.00
26489;BME280;14169;43.684;10.484;2022-12-29T05:41:48;102242.56;;;12.48;100.00
26489;BME280;14169;43.684;10.484;2022-12-29T05:44:14;102248.69;;;12.49;100.00
26489;BME280;14169;43.684;10.484;2022-12-29T05:46:39;102243.47;;;12.46;100.00
26489;BME280;14169;43.684;10.484;2022-12-29T05:49:05;102246.06;;;12.49;100.00
26489;BME280;14169;43.684;10.484;2022-12-29T05:51:31;102247.00;;;12.45;100.00
26489;BME280;14169;43.684;10.484;2022-12-29T05:53:56;102247.09;;;12.39;100.00
26489;BME280;14169;43.684;10.484;2022-12-29T05:56:22;102242.81;;;12.33;100.00
26489;BME280;14169;43.684;10.484;2022-12-29T05:58:47;102247.22;;;12.31;100.00
26489;BME280;14169;43.684;10.484;2022-12-29T06:01:13;102246.38;;;12.28;100.00
26489;BME280;14169;43.684;10.484;2022-12-29T06:03:38;102254.22;;;12.28;100.00
26489;BME280;14169;43.684;10.484;2022-12-29T06:06:04;102246.38;;;12.28;100.00
26489;BME280;14169;43.684;10.484;2022-12-29T06:08:29;102242.91;;;12.27;100.00
26489;BME280;14169;43.684;10.484;2022-12-29T06:10:55;102246.41;;;12.26;100.00
26489;BME280;14169;43.684;10.484;2022-12-29T06:13:20;102247.38;;;12.21;100.00
26489;BME280;14169;43.684;10.484;2022-12-29T06:15:48;102256.91;;;12.22;100.00
26489;BME280;14169;43.684;10.484;2022-12-29T06:18:13;102255.22;;;12.18;100.00
26489;BME280;14169;43.684;10.484;2022-12-29T06:20:38;102257.00;;;12.16;100.00
26489;BME280;14169;43.684;10.484;2022-12-29T06:23:04;102257.00;;;12.16;100.00
26489;BME280;14169;43.684;10.484;2022-12-29T06:25:29;102259.66;;;12.13;100.00
26489;BME280;14169;43.684;10.484;2022-12-29T06:27:57;102253.53;;;12.14;100.00
26489;BME280;14169;43.684;10.484;2022-12-29T06:30:23;102259.63;;;12.17;100.00
26489;BME280;14169;43.684;10.484;2022-12-29T06:32:48;102255.22;;;12.19;100.00
26489;BME280;14169;43.684;10.484;2022-12-29T06:35:13;102255.16;;;12.22;100.00
26489;BME280;14169;43.684;10.484;2022-12-29T06:37:39;102250.84;;;12.20;100.00
26489;BME280;14169;43.684;10.484;2022-12-29T06:40:05;102256.09;;;12.18;100.00
26489;BME280;14169;43.684;10.484;2022-12-29T06:42:30;102253.53;;;12.14;100.00
26489;BME280;14169;43.684;10.484;2022-12-29T06:44:56;102257.97;;;12.10;100.00
26489;BME280;14169;43.684;10.484;2022-12-29T06:47:24;102260.63;;;12.07;100.00
26489;BME280;14169;43.684;10.484;2022-12-29T06:49:49;102261.56;;;12.03;100.00
26489;BME280;14169;43.684;10.484;2022-12-29T06:52:15;102256.34;;;12.00;100.00
26489;BME280;14169;43.684;10.484;2022-12-29T06:54:40;102255.47;;;12.00;100.00
26489;BME280;14169;43.684;10.484;2022-12-29T06:57:06;102252.03;;;11.98;100.00
26489;BME280;14169;43.684;10.484;2022-12-29T06:59:31;102261.50;;;12.06;100.00
26489;BME280;14169;43.684;10.484;2022-12-29T07:01:56;102255.22;;;12.18;100.00
26489;BME280;14169;43.684;10.484;2022-12-29T07:04:22;102254.22;;;12.29;100.00
26489;BME280;14169;43.684;10.484;2022-12-29T07:06:47;102254.16;;;12.32;100.00
26489;BME280;14169;43.684;10.484;2022-12-29T07:09:13;102262.00;;;12.32;100.00
26489;BME280;14169;43.684;10.484;2022-12-29T07:11:39;102257.69;;;12.28;100.00
26489;BME280;14169;43.684;10.484;2022-12-29T07:14:05;102262.97;;;12.25;100.00
26489;BME280;14169;43.684;10.484;2022-12-29T07:16:31;102269.97;;;12.22;100.00
26489;BME280;14169;43.684;10.484;2022-12-29T07:18:57;102264.75;;;12.22;100.00
26489;BME280;14169;43.684;10.484;2022-12-29T07:21:24;102265.59;;;12.24;100.00
26489;BME280;14169;43.684;10.484;2022-12-29T07:23:49;102257.75;;;12.24;100.00
26489;BME280;14169;43.684;10.484;2022-12-29T07:26:15;102268.19;;;12.27;100.00
26489;BME280;14169;43.684;10.484;2022-12-29T07:28:43;102268.03;;;12.37;100.00
26489;BME280;14169;43.684;10.484;2022-12-29T07:31:17;102269.69;;;12.43;100.00
26489;BME280;14169;43.684;10.484;2022-12-29T07:33:43;102271.19;;;12.57;100.00
26489;BME280;14169;43.684;10.484;2022-12-29T07:36:10;102274.47;;;12.70;100.00
26489;BME280;14169;43.684;10.484;2022-12-29T07:38:36;102269.94;;;12.81;100.00
26489;BME280;14169;43.684;10.484;2022-12-29T07:41:01;102276.69;;;12.94;100.00
26489;BME280;14169;43.684;10.484;2022-12-29T07:43:27;102278.31;;;13.01;100.00
26489;BME280;14169;43.684;10.484;2022-12-29T07:45:53;102277.13;;;13.17;100.00
26489;BME280;14169;43.684;10.484;2022-12-29T07:48:18;102280.44;;;13.30;100.00
26489;BME280;14169;43.684;10.484;2022-12-29T07:50:44;102281.84;;;13.47;100.00
26489;BME280;14169;43.684;10.484;2022-12-29T07:53:10;102280.81;;;13.56;100.00
26489;BME280;14169;43.684;10.484;2022-12-29T07:55:35;102282.25;;;13.71;100.00
26489;BME280;14169;43.684;10.484;2022-12-29T07:58:00;102288.09;;;13.85;100.00
26489;BME280;14169;43.684;10.484;2022-12-29T08:00:26;102288.59;;;14.02;100.00
26489;BME280;14169;43.684;10.484;2022-12-29T08:02:51;102290.97;;;14.12;100.00
26489;BME280;14169;43.684;10.484;2022-12-29T08:05:17;102290.69;;;14.26;100.00
26489;BME280;14169;43.684;10.484;2022-12-29T08:07:43;102297.34;;;14.42;100.00
26489;BME280;14169;43.684;10.484;2022-12-29T08:10:09;102290.09;;;14.52;100.00
26489;BME280;14169;43.684;10.484;2022-12-29T08:12:35;102297.50;;;14.71;100.00
26489;BME280;14169;43.684;10.484;2022-12-29T08:15:00;102303.28;;;14.85;100.00
26489;BME280;14169;43.684;10.484;2022-12-29T08:17:25;102296.84;;;14.98;100.00
26489;BME280;14169;43.684;10.484;2022-12-29T08:19:51;102296.53;;;15.10;100.00
26489;BME280;14169;43.684;10.484;2022-12-29T08:22:16;102303.94;;;15.27;100.00
26489;BME280;14169;43.684;10.484;2022-12-29T08:24:42;102308.72;;;15.47;100.00
26489;BME280;14169;43.684;10.484;2022-12-29T08:27:07;102310.16;;;15.58;100.00
26489;BME280;14169;43.684;10.484;2022-12-29T08:29:33;102318.53;;;15.72;100.00
26489;BME280;14169;43.684;10.484;2022-12-29T08:31:58;102314.34;;;15.96;100.00
26489;BME280;14169;43.684;10.484;2022-12-29T08:34:23;102317.47;;;16.09;100.00
26489;BME280;14169;43.684;10.484;2022-12-29T08:36:49;102318.75;;;16.23;100.00
26489;BME280;14169;43.684;10.484;2022-12-29T08:39:14;102328.09;;;16.33;100.00
26489;BME280;14169;43.684;10.484;2022-12-29T08:41:39;102330.19;;;16.51;100.00
26489;BME280;14169;43.684;10.484;2022-12-29T08:44:05;102330.19;;;16.51;100.00
26489;BME280;14169;43.684;10.484;2022-12-29T08:46:31;102333.41;;;16.61;100.00
26489;BME280;14169;43.684;10.484;2022-12-29T08:48:56;102335.09;;;16.63;100.00
26489;BME280;14169;43.684;10.484;2022-12-29T08:51:22;102335.56;;;16.76;100.00
26489;BME280;14169;43.684;10.484;2022-12-29T08:53:47;102336.25;;;16.82;100.00
26489;BME280;14169;43.684;10.484;2022-12-29T08:56:12;102342.88;;;16.94;100.00
26489;BME280;14169;43.684;10.484;2022-12-29T08:58:38;102348.44;;;17.11;100.00
26489;BME280;14169;43.684;10.484;2022-12-29T09:01:04;102348.97;;;17.21;100.00
26489;BME280;14169;43.684;10.484;2022-12-29T09:03:29;102352.63;;;17.44;100.00
26489;BME280;14169;43.684;10.484;2022-12-29T09:05:55;102348.34;;;17.65;100.00
26489;BME280;14169;43.684;10.484;2022-12-29T09:08:21;102356.84;;;17.73;100.00
26489;BME280;14169;43.684;10.484;2022-12-29T09:10:47;102361.66;;;17.85;100.00
26489;BME280;14169;43.684;10.484;2022-12-29T09:13:13;102373.09;;;18.09;100.00
26489;BME280;14169;43.684;10.484;2022-12-29T09:15:39;102379.50;;;18.26;100.00
26489;BME280;14169;43.684;10.484;2022-12-29T09:18:06;102382.38;;;18.43;100.00
26489;BME280;14169;43.684;10.484;2022-12-29T09:20:32;102395.78;;;18.61;100.00
26489;BME280;14169;43.684;10.484;2022-12-29T09:22:57;102394.47;;;18.72;100.00
26489;BME280;14169;43.684;10.484;2022-12-29T09:25:22;102383.09;;;18.70;100.00
26489;BME280;14169;43.684;10.484;2022-12-29T09:27:50;102377.59;;;18.75;100.00
26489;BME280;14169;43.684;10.484;2022-12-29T09:30:18;102358.94;;;19.01;100.00
26489;BME280;14169;43.684;10.484;2022-12-29T09:32:43;102360.53;;;19.05;100.00
26489;BME280;14169;43.684;10.484;2022-12-29T09:35:09;102362.94;;;19.11;100.00
26489;BME280;14169;43.684;10.484;2022-12-29T09:37:35;102365.63;;;19.31;100.00
26489;BME280;14169;43.684;10.484;2022-12-29T09:40:01;102359.44;;;19.32;100.00
26489;BME280;14169;43.684;10.484;2022-12-29T09:42:35;102358.66;;;19.50;100.00
26489;BME280;14169;43.684;10.484;2022-12-29T09:47:32;102364.75;;;19.91;100.00
26489;BME280;14169;43.684;10.484;2022-12-29T09:50:05;102361.59;;;20.03;100.00
26489;BME280;14169;43.684;10.484;2022-12-29T09:52:44;102365.56;;;20.32;100.00
26489;BME280;14169;43.684;10.484;2022-12-29T09:55:17;102361.66;;;20.39;100.00
26489;BME280;14169;43.684;10.484;2022-12-29T09:57:54;102357.59;;;20.32;100.00
26489;BME280;14169;43.684;10.484;2022-12-29T10:00:24;102358.59;;;20.48;100.00
26489;BME280;14169;43.684;10.484;2022-12-29T10:02:59;102352.19;;;20.70;100.00
26489;BME280;14169;43.684;10.484;2022-12-29T10:05:42;102355.63;;;21.08;100.00
26489;BME280;14169;43.684;10.484;2022-12-29T10:08:23;102348.25;;;21.15;100.00
26489;BME280;14169;43.684;10.484;2022-12-29T10:11:23;102354.28;;;21.35;100.00
26489;BME280;14169;43.684;10.484;2022-12-29T10:14:05;102348.28;;;21.32;100.00
26489;BME280;14169;43.684;10.484;2022-12-29T10:19:52;102333.00;;;21.86;100.00
26489;BME280;14169;43.684;10.484;2022-12-29T10:24:55;102325.72;;;22.23;100.00
26489;BME280;14169;43.684;10.484;2022-12-29T10:27:22;102326.84;;;22.50;100.00
26489;BME280;14169;43.684;10.484;2022-12-29T10:29:55;102325.31;;;22.61;100.00
26489;BME280;14169;43.684;10.484;2022-12-29T10:32:48;102327.84;;;22.32;100.00
26489;BME280;14169;43.684;10.484;2022-12-29T10:35:21;102323.13;;;22.68;100.00
26489;BME280;14169;43.684;10.484;2022-12-29T10:40:22;102318.16;;;22.93;100.00
26489;BME280;14169;43.684;10.484;2022-12-29T10:42:54;102308.06;;;23.14;100.00
26489;BME280;14169;43.684;10.484;2022-12-29T10:45:22;102307.91;;;23.31;100.00
26489;BME280;14169;43.684;10.484;2022-12-29T10:50:20;102309.16;;;22.80;100.00
26489;BME280;14169;43.684;10.484;2022-12-29T10:52:46;102308.06;;;23.14;100.00
26489;BME280;14169;43.684;10.484;2022-12-29T10:55:19;102298.59;;;22.94;100.00
26489;BME280;14169;43.684;10.484;2022-12-29T10:57:47;102296.28;;;23.18;100.00
26489;BME280;14169;43.684;10.484;2022-12-29T11:00:20;102290.75;;;23.50;100.00
26489;BME280;14169;43.684;10.484;2022-12-29T11:06:25;102283.13;;;23.44;100.00
26489;BME280;14169;43.684;10.484;2022-12-29T11:08:56;102285.25;;;23.96;100.00
26489;BME280;14169;43.684;10.484;2022-12-29T11:11:25;102275.63;;;24.07;100.00
26489;BME280;14169;43.684;10.484;2022-12-29T11:14:18;102270.94;;;24.25;100.00
26489;BME280;14169;43.684;10.484;2022-12-29T11:16:44;102275.47;;;24.64;100.00
26489;BME280;14169;43.684;10.484;2022-12-29T11:19:21;102273.63;;;24.11;100.00
26489;BME280;14169;43.684;10.484;2022-12-29T11:21:47;102274.44;;;23.13;100.00
26489;BME280;14169;43.684;10.484;2022-12-29T11:24:29;102277.91;;;22.07;100.00
26489;BME280;14169;43.684;10.484;2022-12-29T11:27:10;102280.28;;;21.14;100.00
26489;BME280;14169;43.684;10.484;2022-12-29T11:29:41;102262.94;;;20.37;100.00
26489;BME280;14169;43.684;10.484;2022-12-29T11:32:12;102265.50;;;19.82;100.00
26489;BME280;14169;43.684;10.484;2022-12-29T11:34:38;102255.22;;;19.38;100.00
26489;BME280;14169;43.684;10.484;2022-12-29T11:37:12;102252.13;;;19.28;100.00
26489;BME280;14169;43.684;10.484;2022-12-29T11:42:17;102255.94;;;19.41;100.00
26489;BME280;14169;43.684;10.484;2022-12-29T11:44:48;102251.16;;;20.06;100.00
26489;BME280;14169;43.684;10.484;2022-12-29T11:47:27;102241.69;;;19.82;100.00
26489;BME280;14169;43.684;10.484;2022-12-29T11:49:57;102240.50;;;19.89;100.00
26489;BME280;14169;43.684;10.484;2022-12-29T11:52:26;102243.56;;;20.89;100.00
26489;BME280;14169;43.684;10.484;2022-12-29T11:54:53;102234.25;;;21.32;100.00
26489;BME280;14169;43.684;10.484;2022-12-29T11:57:21;102223.59;;;20.82;100.00
26489;BME280;14169;43.684;10.484;2022-12-29T11:59:56;102221.97;;;21.46;100.00
26489;BME280;14169;43.684;10.484;2022-12-29T12:04:58;102214.91;;;22.86;100.00
26489;BME280;14169;43.684;10.484;2022-12-29T12:07:41;102217.41;;;22.59;100.00
26489;BME280;14169;43.684;10.484;2022-12-29T12:10:15;102215.50;;;22.31;100.00
26489;BME280;14169;43.684;10.484;2022-12-29T12:15:50;102192.97;;;23.68;100.00
26489;BME280;14169;43.684;10.484;2022-12-29T12:20:52;102195.25;;;23.74;100.00
26489;BME280;14169;43.684;10.484;2022-12-29T12:23:31;102192.63;;;24.01;100.00
26489;BME280;14169;43.684;10.484;2022-12-29T12:26:09;102197.34;;;24.10;96.58
26489;BME280;14169;43.684;10.484;2022-12-29T12:31:13;102190.13;;;23.43;100.00
26489;BME280;14169;43.684;10.484;2022-12-29T12:33:47;102180.78;;;22.94;100.00
26489;BME280;14169;43.684;10.484;2022-12-29T12:42:04;102189.00;;;22.45;100.00
26489;BME280;14169;43.684;10.484;2022-12-29T12:44:56;102172.97;;;22.91;100.00
26489;BME280;14169;43.684;10.484;2022-12-29T12:56:03;102173.97;;;22.74;100.00
26489;BME280;14169;43.684;10.484;2022-12-29T12:58:52;102173.28;;;23.00;100.00
26489;BME280;14169;43.684;10.484;2022-12-29T13:01:53;102171.56;;;22.55;100.00
26489;BME280;14169;43.684;10.484;2022-12-29T13:07:13;102172.97;;;22.16;100.00
26489;BME280;14169;43.684;10.484;2022-12-29T13:15:52;102153.75;;;21.97;100.00
26489;BME280;14169;43.684;10.484;2022-12-29T13:24:02;102147.25;;;20.56;100.00
26489;BME280;14169;43.684;10.484;2022-12-29T13:29:23;102141.56;;;22.08;100.00
26489;BME280;14169;43.684;10.484;2022-12-29T13:34:46;102132.75;;;22.97;100.00
26489;BME280;14169;43.684;10.484;2022-12-29T13:37:16;102136.97;;;23.55;100.00
26489;BME280;14169;43.684;10.484;2022-12-29T13:39:52;102134.00;;;23.33;100.00
26489;BME280;14169;43.684;10.484;2022-12-29T13:42:21;102133.88;;;23.49;100.00
26489;BME280;14169;43.684;10.484;2022-12-29T13:45:01;102132.00;;;23.09;100.00
26489;BME280;14169;43.684;10.484;2022-12-29T13:47:37;102133.41;;;23.00;100.00
26489;BME280;14169;43.684;10.484;2022-12-29T13:50:11;102132.47;;;22.57;100.00
26489;BME280;14169;43.684;10.484;2022-12-29T13:55:48;102142.13;;;19.81;100.00
26489;BME280;14169;43.684;10.484;2022-12-29T14:01:33;102145.41;;;19.12;100.00
26489;BME280;14169;43.684;10.484;2022-12-29T14:04:00;102162.06;;;18.92;100.00
26489;BME280;14169;43.684;10.484;2022-12-29T14:06:33;102159.31;;;18.75;100.00
26489;BME280;14169;43.684;10.484;2022-12-29T14:09:42;102160.81;;;18.61;100.00
26489;BME280;14169;43.684;10.484;2022-12-29T14:12:21;102160.16;;;18.56;100.00
26489;BME280;14169;43.684;10.484;2022-12-29T14:14:47;102161.06;;;18.34;100.00
26489;BME280;14169;43.684;10.484;2022-12-29T14:17:19;102163.34;;;19.43;100.00
26489;BME280;14169;43.684;10.484;2022-12-29T14:19:46;102154.00;;;20.44;100.00
26489;BME280;14169;43.684;10.484;2022-12-29T14:22:12;102148.13;;;21.06;100.00
26489;BME280;14169;43.684;10.484;2022-12-29T14:24:42;102149.78;;;20.06;100.00
26489;BME280;14169;43.684;10.484;2022-12-29T14:32:36;102158.56;;;19.88;100.00
26489;BME280;14169;43.684;10.484;2022-12-29T14:38:16;102170.31;;;18.65;100.00
26489;BME280;14169;43.684;10.484;2022-12-29T14:40:42;102186.28;;;18.41;100.00
26489;BME280;14169;43.684;10.484;2022-12-29T14:43:37;102184.53;;;18.19;100.00